Time;durP1;ratioP1;P1;durP2;ratioP2;P2;SDS_P1;SDS_P2;PMS_P1;PMS_P2;Temp;Humidity;BMP_temperature;BMP_pressure;BME280_temperature;BME280_humidity;BME280_pressure;Samples;Min_cycle;Max_cycle;Signal;HPM_P1;HPM_P2
2024/03/24 00:03:41;;;;;;;0.30;0.30;;;;;;;;;;10479930;28;20043;-75
2024/03/24 00:08:43;;;;;;;0.52;0.50;;;;;;;;;;10484372;28;20449;-75
2024/03/24 00:13:46;;;;;;;1.63;0.60;;;;;;;;;;10484774;28;20655;-75
2024/03/24 00:18:48;;;;;;;0.25;0.25;;;;;;;;;;10482953;28;20056;-76
2024/03/24 00:23:50;;;;;;;0.50;0.50;;;;;;;;;;10478192;28;20036;-75
2024/03/24 00:28:53;;;;;;;2.63;0.47;;;;;;;;;;10480986;28;20248;-76
2024/03/24 00:33:55;;;;;;;0.88;0.50;;;;;;;;;;10483425;28;20043;-75
2024/03/24 00:38:57;;;;;;;0.13;0.13;;;;;;;;;;10483492;28;20047;-74
2024/03/24 00:44:00;;;;;;;0.30;0.30;;;;;;;;;;10484922;28;20032;-74
2024/03/24 00:49:03;;;;;;;0.87;0.60;;;;;;;;;;10483656;28;20144;-76
2024/03/24 00:54:05;;;;;;;0.22;0.20;;;;;;;;;;10480738;28;20412;-76
2024/03/24 00:59:09;;;;;;;2.47;0.70;;;;;;;;;;10481310;28;20052;-75
2024/03/24 01:04:11;;;;;;;1.48;0.70;;;;;;;;;;10480736;28;20032;-76
2024/03/24 01:09:13;;;;;;;0.43;0.10;;;;;;;;;;10480259;28;20043;-76
2024/03/24 01:14:18;;;;;;;0.22;0.10;;;;;;;;;;10481208;28;20459;-75
2024/03/24 01:19:20;;;;;;;0.00;0.00;;;;;;;;;;10477392;28;20071;-76
2024/03/24 01:24:22;;;;;;;0.75;0.60;;;;;;;;;;10479985;28;20157;-77
2024/03/24 01:29:25;;;;;;;1.65;0.65;;;;;;;;;;10462477;28;20045;-77
2024/03/24 01:34:27;;;;;;;2.35;0.40;;;;;;;;;;10482797;28;20048;-74
2024/03/24 01:39:28;;;;;;;0.20;0.17;;;;;;;;;;10477227;28;20571;-74
2024/03/24 01:44:32;;;;;;;0.40;0.30;;;;;;;;;;10492639;28;20036;-75
2024/03/24 01:49:35;;;;;;;1.13;0.57;;;;;;;;;;10478100;28;20385;-75
2024/03/24 01:54:37;;;;;;;0.10;0.10;;;;;;;;;;10482258;28;20549;-76
2024/03/24 01:59:41;;;;;;;1.75;0.60;;;;;;;;;;10478821;28;20056;-75
2024/03/24 02:04:47;;;;;;;1.73;0.50;;;;;;;;;;10483560;28;20038;-75
2024/03/24 02:09:49;;;;;;;0.52;0.32;;;;;;;;;;10481447;28;20528;-77
2024/03/24 02:14:52;;;;;;;0.30;0.30;;;;;;;;;;10454450;28;20422;-76
2024/03/24 02:19:54;;;;;;;0.83;0.60;;;;;;;;;;10473256;28;20052;-76
2024/03/24 02:24:58;;;;;;;0.22;0.22;;;;;;;;;;10465925;28;20082;-74
2024/03/24 02:30:00;;;;;;;0.23;0.17;;;;;;;;;;10480200;28;20400;-75
2024/03/24 02:35:03;;;;;;;0.60;0.60;;;;;;;;;;10457793;28;20040;-74
2024/03/24 02:40:14;;;;;;;0.20;0.20;;;;;;;;;;10483948;28;20711;-75
2024/03/24 02:45:16;;;;;;;1.20;0.40;;;;;;;;;;10470931;28;20394;-75
2024/03/24 02:50:18;;;;;;;0.22;0.08;;;;;;;;;;10463152;28;20845;-75
2024/03/24 02:55:24;;;;;;;0.00;0.00;;;;;;;;;;10481278;28;20446;-75
2024/03/24 03:00:27;;;;;;;0.20;0.20;;;;;;;;;;10483857;28;20578;-76
2024/03/24 03:05:29;;;;;;;0.38;0.30;;;;;;;;;;10480049;28;20033;-76
2024/03/24 03:10:32;;;;;;;0.30;0.30;;;;;;;;;;10480023;28;20059;-75
2024/03/24 03:15:33;;;;;;;0.23;0.20;;;;;;;;;;10476915;28;20035;-74
2024/03/24 03:20:35;;;;;;;0.63;0.30;;;;;;;;;;10481799;28;20488;-75
2024/03/24 03:25:39;;;;;;;1.85;0.22;;;;;;;;;;10475079;28;20487;-75
2024/03/24 03:30:42;;;;;;;0.93;0.47;;;;;;;;;;10479521;28;20042;-75
2024/03/24 03:35:44;;;;;;;0.20;0.17;;;;;;;;;;10489633;28;20086;-76
2024/03/24 03:40:47;;;;;;;0.20;0.20;;;;;;;;;;10478550;28;20074;-76
2024/03/24 03:45:49;;;;;;;0.17;0.17;;;;;;;;;;10474592;28;20538;-76
2024/03/24 03:50:51;;;;;;;1.27;0.65;;;;;;;;;;10482123;28;20048;-75
2024/03/24 03:55:54;;;;;;;2.88;0.80;;;;;;;;;;10483783;28;20049;-75
2024/03/24 04:00:56;;;;;;;0.53;0.40;;;;;;;;;;10474552;28;20036;-74
2024/03/24 04:06:03;;;;;;;0.93;0.50;;;;;;;;;;10482800;28;20122;-75
2024/03/24 04:11:07;;;;;;;0.40;0.30;;;;;;;;;;10482159;28;20044;-74
2024/03/24 04:16:09;;;;;;;0.75;0.40;;;;;;;;;;10459917;28;20488;-75
2024/03/24 04:21:11;;;;;;;0.50;0.50;;;;;;;;;;10477790;28;20134;-76
2024/03/24 04:26:14;;;;;;;0.25;0.25;;;;;;;;;;10471530;28;20040;-76
2024/03/24 04:31:16;;;;;;;0.40;0.40;;;;;;;;;;10471505;28;20635;-75
2024/03/24 04:36:19;;;;;;;0.47;0.47;;;;;;;;;;10460256;28;20074;-75
2024/03/24 04:41:23;;;;;;;0.80;0.60;;;;;;;;;;10469802;28;20043;-75
2024/03/24 04:46:25;;;;;;;;;;;;;;;;;;10481694;28;20037;-75
2024/03/24 04:51:28;;;;;;;2.20;0.45;;;;;;;;;;10476810;28;19951;-75
2024/03/24 04:56:31;;;;;;;0.52;0.40;;;;;;;;;;10482101;28;20048;-75
2024/03/24 05:01:32;;;;;;;0.40;0.40;;;;;;;;;;10486102;28;20611;-75
2024/03/24 05:06:34;;;;;;;1.95;0.57;;;;;;;;;;10482667;28;20056;-76
2024/03/24 05:11:37;;;;;;;0.60;0.60;;;;;;;;;;10480210;28;20493;-76
2024/03/24 05:16:39;;;;;;;1.02;0.50;;;;;;;;;;10462999;28;20394;-75
2024/03/24 05:21:41;;;;;;;0.40;0.40;;;;;;;;;;10473462;28;20037;-75
2024/03/24 05:26:45;;;;;;;0.52;0.40;;;;;;;;;;10476582;28;20040;-75
2024/03/24 05:31:50;;;;;;;1.02;0.55;;;;;;;;;;10486091;28;20114;-74
2024/03/24 05:36:52;;;;;;;0.47;0.40;;;;;;;;;;10476325;28;20481;-75
2024/03/24 05:41:56;;;;;;;2.22;0.50;;;;;;;;;;10494335;28;20459;-75
2024/03/24 05:46:58;;;;;;;0.17;0.17;;;;;;;;;;10475079;28;20550;-74
2024/03/24 05:52:00;;;;;;;1.23;0.45;;;;;;;;;;10465084;28;20136;-75
2024/03/24 05:57:03;;;;;;;0.52;0.52;;;;;;;;;;10495519;28;20036;-75
2024/03/24 06:02:05;;;;;;;0.50;0.30;;;;;;;;;;10485457;28;20766;-74
2024/03/24 06:07:10;;;;;;;0.68;0.40;;;;;;;;;;10478961;28;20797;-74
2024/03/24 06:12:14;;;;;;;1.05;0.50;;;;;;;;;;10472776;28;20475;-74
2024/03/24 06:17:16;;;;;;;0.40;0.40;;;;;;;;;;10477122;28;20040;-74
2024/03/24 06:22:18;;;;;;;0.60;0.60;;;;;;;;;;10469361;28;20374;-75
2024/03/24 06:27:28;;;;;;;0.60;0.57;;;;;;;;;;10479628;28;20497;-75
2024/03/24 06:32:31;;;;;;;0.30;0.30;;;;;;;;;;10476115;28;20033;-75
2024/03/24 06:37:34;;;;;;;0.40;0.40;;;;;;;;;;10476080;28;20040;-78
2024/03/24 06:42:58;;;;;;;0.85;0.50;;;;;;;;;;10475374;28;20662;-75
2024/03/24 06:48:01;;;;;;;1.48;0.60;;;;;;;;;;10481562;28;20063;-73
2024/03/24 06:53:03;;;;;;;0.55;0.30;;;;;;;;;;10474702;28;20585;-74
2024/03/24 06:58:07;;;;;;;0.85;0.68;;;;;;;;;;10463502;28;20275;-74
2024/03/24 07:03:08;;;;;;;2.00;0.50;;;;;;;;;;10471658;28;20104;-74
2024/03/24 07:08:11;;;;;;;0.93;0.60;;;;;;;;;;10473680;28;20105;-75
2024/03/24 07:13:14;;;;;;;0.68;0.43;;;;;;;;;;10473873;28;20039;-75
2024/03/24 07:18:16;;;;;;;0.87;0.70;;;;;;;;;;10474200;28;20427;-75
2024/03/24 07:23:17;;;;;;;0.50;0.50;;;;;;;;;;10466674;28;20052;-75
2024/03/24 07:28:22;;;;;;;0.60;0.40;;;;;;;;;;10475089;28;20522;-74
2024/03/24 07:33:24;;;;;;;0.63;0.57;;;;;;;;;;10479182;28;20028;-75
2024/03/24 07:38:26;;;;;;;1.58;0.45;;;;;;;;;;10477136;28;20044;-75
2024/03/24 07:43:29;;;;;;;0.38;0.38;;;;;;;;;;10476216;28;20127;-74
2024/03/24 07:48:32;;;;;;;0.80;0.60;;;;;;;;;;10475372;28;20428;-75
2024/03/24 07:53:33;;;;;;;1.73;0.68;;;;;;;;;;10474176;28;20039;-75
2024/03/24 07:58:37;;;;;;;0.30;0.30;;;;;;;;;;10476851;28;20469;-74
2024/03/24 08:03:39;;;;;;;0.77;0.30;;;;;;;;;;10476253;28;20513;-73
2024/03/24 08:08:41;;;;;;;0.85;0.63;;;;;;;;;;10483351;28;20070;-73
2024/03/24 08:13:44;;;;;;;0.88;0.43;;;;;;;;;;10482547;28;20395;-72
2024/03/24 08:18:46;;;;;;;1.33;0.47;;;;;;;;;;10484637;28;20043;-74
2024/03/24 08:23:49;;;;;;;1.50;0.40;;;;;;;;;;10485837;28;20039;-74
2024/03/24 08:28:53;;;;;;;1.10;0.55;;;;;;;;;;10484712;28;20074;-73
2024/03/24 08:33:55;;;;;;;;;;;;;;;;;;10475958;28;20049;-74
2024/03/24 08:38:57;;;;;;;0.70;0.50;;;;;;;;;;10487880;28;19929;-73
2024/03/24 08:44:12;;;;;;;1.17;0.47;;;;;;;;;;10478503;28;20051;-73
2024/03/24 08:49:18;;;;;;;0.22;0.22;;;;;;;;;;10484803;28;20051;-74
2024/03/24 08:54:20;;;;;;;0.82;0.60;;;;;;;;;;10485436;28;20213;-75
2024/03/24 08:59:24;;;;;;;0.40;0.40;;;;;;;;;;10483751;28;20036;-74
2024/03/24 09:04:25;;;;;;;1.90;0.50;;;;;;;;;;10481199;28;20049;-74
2024/03/24 09:09:33;;;;;;;0.43;0.30;;;;;;;;;;10496331;28;20114;-75
2024/03/24 09:14:37;;;;;;;0.50;0.50;;;;;;;;;;10493667;28;20029;-77
2024/03/24 09:19:39;;;;;;;0.30;0.30;;;;;;;;;;10471429;28;20463;-76
2024/03/24 09:24:41;;;;;;;0.40;0.40;;;;;;;;;;10479874;28;20040;-77
2024/03/24 09:29:45;;;;;;;0.45;0.40;;;;;;;;;;10477589;28;20040;-75
2024/03/24 09:34:48;;;;;;;1.00;1.00;;;;;;;;;;10487784;28;20060;-75
2024/03/24 09:39:50;;;;;;;0.70;0.70;;;;;;;;;;10484593;28;20042;-75
2024/03/24 09:44:53;;;;;;;0.93;0.70;;;;;;;;;;10485611;28;20040;-76
2024/03/24 09:49:56;;;;;;;0.75;0.60;;;;;;;;;;10494797;28;20060;-75
2024/03/24 09:55:01;;;;;;;0.80;0.70;;;;;;;;;;10479633;28;20032;-76
2024/03/24 10:00:13;;;;;;;0.63;0.52;;;;;;;;;;10478474;28;20043;-75
2024/03/24 10:05:16;;;;;;;0.40;0.40;;;;;;;;;;10478588;28;20059;-75
2024/03/24 10:10:22;;;;;;;0.57;0.57;;;;;;;;;;10480558;28;20085;-75
2024/03/24 10:15:27;;;;;;;1.00;1.00;;;;;;;;;;10476300;28;20667;-74
2024/03/24 10:20:32;;;;;;;1.10;1.10;;;;;;;;;;10483445;28;20045;-75
2024/03/24 10:25:35;;;;;;;0.90;0.60;;;;;;;;;;10475017;28;20059;-74
2024/03/24 10:30:39;;;;;;;0.90;0.52;;;;;;;;;;10482705;28;20492;-75
2024/03/24 10:35:45;;;;;;;0.25;0.25;;;;;;;;;;10478062;28;20040;-76
2024/03/24 10:40:47;;;;;;;0.45;0.45;;;;;;;;;;10474228;28;20051;-75
2024/03/24 10:45:51;;;;;;;0.75;0.35;;;;;;;;;;10486540;28;20057;-76
2024/03/24 10:50:53;;;;;;;;;;;;;;;;;;10475542;28;20036;-76
2024/03/24 10:55:57;;;;;;;3.47;0.80;;;;;;;;;;10482355;28;20668;-74
2024/03/24 11:01:01;;;;;;;1.42;1.10;;;;;;;;;;10479653;28;20048;-76
2024/03/24 11:06:04;;;;;;;1.17;0.70;;;;;;;;;;10473816;28;20064;-76
2024/03/24 11:11:06;;;;;;;0.63;0.50;;;;;;;;;;10477698;28;20040;-76
2024/03/24 11:16:12;;;;;;;1.60;0.73;;;;;;;;;;10481937;28;20101;-76
2024/03/24 11:21:29;;;;;;;1.35;0.55;;;;;;;;;;10482102;28;20102;-75
2024/03/24 11:26:35;;;;;;;0.57;0.40;;;;;;;;;;10482106;28;20066;-75
2024/03/24 11:31:39;;;;;;;2.28;0.70;;;;;;;;;;10468709;28;20365;-75
2024/03/24 11:36:47;;;;;;;0.82;0.32;;;;;;;;;;10479931;28;20043;-78
2024/03/24 11:41:53;;;;;;;1.58;0.32;;;;;;;;;;10484776;28;20493;-77
2024/03/24 11:47:03;;;;;;;1.90;0.50;;;;;;;;;;10479246;28;20086;-76
2024/03/24 11:52:05;;;;;;;0.35;0.35;;;;;;;;;;10478949;28;20040;-77
2024/03/24 11:57:10;;;;;;;0.68;0.43;;;;;;;;;;10471301;28;20138;-76
2024/03/24 12:02:15;;;;;;;1.95;0.50;;;;;;;;;;10487555;28;20074;-76
2024/03/24 12:07:20;;;;;;;0.55;0.45;;;;;;;;;;10483720;28;20032;-75
2024/03/24 12:12:22;;;;;;;0.88;0.52;;;;;;;;;;10487966;28;20040;-76
2024/03/24 12:17:25;;;;;;;1.38;0.57;;;;;;;;;;10481648;28;20044;-76
2024/03/24 12:22:28;;;;;;;1.25;0.60;;;;;;;;;;10482499;28;20043;-74
2024/03/24 12:27:29;;;;;;;0.55;0.52;;;;;;;;;;10483129;28;20044;-75
2024/03/24 12:32:33;;;;;;;0.55;0.52;;;;;;;;;;10485513;28;20036;-75
2024/03/24 12:37:36;;;;;;;0.32;0.30;;;;;;;;;;10489214;28;20585;-75
2024/03/24 12:42:41;;;;;;;0.98;0.40;;;;;;;;;;10502088;28;20040;-76
2024/03/24 12:47:48;;;;;;;1.17;0.60;;;;;;;;;;10484113;28;20099;-76
2024/03/24 12:52:50;;;;;;;1.10;0.70;;;;;;;;;;10502478;28;20063;-79
2024/03/24 12:57:54;;;;;;;0.63;0.40;;;;;;;;;;10484103;28;20084;-78
2024/03/24 13:03:00;;;;;;;1.73;0.83;;;;;;;;;;10478750;28;20043;-78
2024/03/24 13:08:03;;;;;;;0.50;0.50;;;;;;;;;;10481291;28;20449;-78
2024/03/24 13:13:05;;;;;;;1.38;1.00;;;;;;;;;;10485543;28;20036;-78
2024/03/24 13:18:23;;;;;;;2.05;0.80;;;;;;;;;;10486713;28;20047;-78
2024/03/24 13:23:25;;;;;;;1.70;0.70;;;;;;;;;;10494376;28;20024;-79
2024/03/24 13:28:27;;;;;;;2.22;1.40;;;;;;;;;;10480722;28;20099;-78
2024/03/24 13:33:32;;;;;;;1.98;1.52;;;;;;;;;;10487542;28;20284;-79
2024/03/24 13:38:50;;;;;;;2.22;0.90;;;;;;;;;;10484959;28;20093;-78
2024/03/24 13:44:02;;;;;;;1.67;1.30;;;;;;;;;;10485285;28;20032;-77
2024/03/24 13:49:06;;;;;;;1.70;1.15;;;;;;;;;;10487196;28;20405;-79
2024/03/24 13:54:10;;;;;;;1.35;0.85;;;;;;;;;;10482281;28;20109;-79
2024/03/24 13:59:13;;;;;;;1.30;0.70;;;;;;;;;;10465251;28;20040;-78
2024/03/24 14:04:18;;;;;;;3.47;1.23;;;;;;;;;;10477863;28;20269;-78
2024/03/24 14:09:27;;;;;;;2.33;0.90;;;;;;;;;;10477220;28;20074;-75
2024/03/24 14:14:38;;;;;;;1.35;0.90;;;;;;;;;;10480768;28;20131;-75
2024/03/24 14:19:42;;;;;;;1.42;1.15;;;;;;;;;;10459962;28;20041;-76
2024/03/24 14:24:54;;;;;;;1.73;0.95;;;;;;;;;;10484969;28;20035;-75
2024/03/24 14:29:57;;;;;;;1.63;1.00;;;;;;;;;;10487012;28;20534;-76
2024/03/24 14:35:00;;;;;;;1.20;0.95;;;;;;;;;;10487953;28;20096;-76
2024/03/24 14:40:14;;;;;;;1.00;0.90;;;;;;;;;;10480522;28;20097;-73
2024/03/24 14:45:25;;;;;;;1.40;0.73;;;;;;;;;;10487055;28;20313;-75
2024/03/24 14:50:30;;;;;;;3.28;1.25;;;;;;;;;;10484998;28;20075;-75
2024/03/24 14:55:32;;;;;;;2.17;1.08;;;;;;;;;;10479529;28;20084;-75
2024/03/24 15:00:35;;;;;;;2.28;0.95;;;;;;;;;;10478392;28;20052;-76
2024/03/24 15:05:39;;;;;;;0.93;0.60;;;;;;;;;;10477809;28;20379;-74
2024/03/24 15:10:41;;;;;;;2.33;1.10;;;;;;;;;;10478884;28;20513;-75
2024/03/24 15:15:44;;;;;;;2.13;1.05;;;;;;;;;;10474819;28;20402;-76
2024/03/24 15:20:48;;;;;;;3.80;1.42;;;;;;;;;;10484399;28;20068;-75
2024/03/24 15:25:51;;;;;;;2.83;1.00;;;;;;;;;;10480419;28;20382;-76
2024/03/24 15:30:53;;;;;;;3.13;1.38;;;;;;;;;;10479473;28;20036;-77
2024/03/24 15:35:56;;;;;;;2.63;1.27;;;;;;;;;;10477385;28;20117;-76
2024/03/24 15:40:58;;;;;;;1.60;0.90;;;;;;;;;;10472342;28;20383;-74
2024/03/24 15:46:00;;;;;;;1.92;1.20;;;;;;;;;;10481839;28;20528;-75
2024/03/24 15:51:06;;;;;;;0.60;0.60;;;;;;;;;;10477115;28;20468;-75
2024/03/24 15:56:15;;;;;;;1.75;0.73;;;;;;;;;;10476720;28;20048;-73
2024/03/24 16:01:25;;;;;;;2.10;0.65;;;;;;;;;;10447716;28;20050;-74
2024/03/24 16:06:29;;;;;;;0.75;0.47;;;;;;;;;;10477630;28;20036;-75
2024/03/24 16:11:32;;;;;;;2.92;1.40;;;;;;;;;;10465228;28;20035;-74
2024/03/24 16:16:34;;;;;;;1.35;0.95;;;;;;;;;;10479854;28;20101;-75
2024/03/24 16:21:41;;;;;;;1.63;0.98;;;;;;;;;;10471832;28;20044;-74
2024/03/24 16:26:43;;;;;;;2.33;0.57;;;;;;;;;;10479549;28;20135;-74
2024/03/24 16:31:46;;;;;;;1.65;0.73;;;;;;;;;;10478741;28;20097;-74
2024/03/24 16:36:49;;;;;;;1.40;0.30;;;;;;;;;;10479832;28;20572;-74
2024/03/24 16:41:53;;;;;;;2.07;0.83;;;;;;;;;;10489417;28;20048;-77
2024/03/24 16:46:55;;;;;;;;;;;;;;;;;;10484775;28;20299;-74
2024/03/24 16:52:03;;;;;;;0.73;0.40;;;;;;;;;;10487687;28;19932;-74
2024/03/24 16:57:05;;;;;;;1.13;0.77;;;;;;;;;;10488534;28;20044;-74
2024/03/24 17:02:08;;;;;;;2.22;0.95;;;;;;;;;;10489882;28;20036;-73
2024/03/24 17:07:12;;;;;;;1.55;0.93;;;;;;;;;;10484354;28;20040;-74
2024/03/24 17:12:14;;;;;;;4.83;0.80;;;;;;;;;;10485069;28;20055;-74
2024/03/24 17:17:17;;;;;;;2.33;0.88;;;;;;;;;;10481201;28;20036;-73
2024/03/24 17:22:20;;;;;;;0.13;0.10;;;;;;;;;;10480388;28;20318;-75
2024/03/24 17:27:22;;;;;;;2.63;0.90;;;;;;;;;;10476403;28;20036;-74
2024/03/24 17:32:24;;;;;;;1.42;1.17;;;;;;;;;;10478367;28;20065;-73
2024/03/24 17:37:32;;;;;;;1.55;0.38;;;;;;;;;;10481167;28;20093;-73
2024/03/24 17:42:34;;;;;;;2.17;0.90;;;;;;;;;;10466906;28;20364;-74
2024/03/24 17:47:37;;;;;;;1.75;0.73;;;;;;;;;;10478421;28;20051;-74
2024/03/24 17:52:40;;;;;;;4.18;1.50;;;;;;;;;;10476113;28;20447;-75
2024/03/24 17:57:42;;;;;;;2.30;0.93;;;;;;;;;;10485272;28;20024;-76
2024/03/24 18:02:44;;;;;;;1.73;0.90;;;;;;;;;;10500735;28;20035;-73
2024/03/24 18:13:07;;;;;;;1.73;0.98;;;;;;;;;;10500681;28;20049;-75
2024/03/24 18:18:13;;;;;;;1.23;0.70;;;;;;;;;;10497562;28;20093;-76
2024/03/24 18:23:16;;;;;;;2.13;1.05;;;;;;;;;;10509821;28;20039;-75
2024/03/24 18:28:21;;;;;;;2.03;1.00;;;;;;;;;;10506814;28;20390;-73
2024/03/24 18:33:29;;;;;;;2.35;1.02;;;;;;;;;;10483793;28;20048;-74
2024/03/24 18:38:33;;;;;;;2.80;1.15;;;;;;;;;;10490809;28;20033;-76
2024/03/24 18:43:35;;;;;;;1.88;0.98;;;;;;;;;;10476111;28;20040;-75
2024/03/24 18:48:37;;;;;;;1.42;0.70;;;;;;;;;;10497893;28;20047;-73
2024/03/24 18:53:41;;;;;;;1.02;0.82;;;;;;;;;;10498165;28;20039;-75
2024/03/24 18:58:45;;;;;;;2.30;1.25;;;;;;;;;;10479799;28;20461;-73
2024/03/24 19:03:47;;;;;;;;;;;;;;;;;;10477753;28;20040;-74
2024/03/24 19:08:54;;;;;;;2.80;1.40;;;;;;;;;;10495210;28;19927;-76
2024/03/24 19:13:56;;;;;;;1.55;0.93;;;;;;;;;;10476111;28;20058;-75
2024/03/24 19:18:59;;;;;;;3.38;1.30;;;;;;;;;;10479313;28;20047;-75
2024/03/24 19:24:02;;;;;;;3.05;0.77;;;;;;;;;;10478053;28;20096;-75
2024/03/24 19:29:09;;;;;;;5.05;1.45;;;;;;;;;;10479205;28;20662;-74
2024/03/24 19:34:11;;;;;;;3.38;1.42;;;;;;;;;;10474103;28;20552;-79
2024/03/24 19:39:15;;;;;;;2.25;1.27;;;;;;;;;;10476112;28;20035;-75
2024/03/24 19:44:17;;;;;;;1.65;0.82;;;;;;;;;;10470682;28;20482;-77
2024/03/24 19:49:22;;;;;;;3.05;0.95;;;;;;;;;;10468491;28;20052;-76
2024/03/24 19:54:26;;;;;;;2.28;1.00;;;;;;;;;;10476075;28;20056;-74
2024/03/24 19:59:29;;;;;;;2.28;1.15;;;;;;;;;;10474918;28;20051;-76
2024/03/24 20:04:33;;;;;;;1.92;0.88;;;;;;;;;;10474153;28;20075;-75
2024/03/24 20:09:38;;;;;;;1.52;1.30;;;;;;;;;;10464799;28;20119;-75
2024/03/24 20:14:40;;;;;;;1.30;0.82;;;;;;;;;;10485047;28;20055;-76
2024/03/24 20:19:43;;;;;;;1.45;1.05;;;;;;;;;;10485402;28;20040;-75
2024/03/24 20:24:49;;;;;;;1.47;1.00;;;;;;;;;;10471177;28;20056;-75
2024/03/24 20:29:52;;;;;;;1.27;0.80;;;;;;;;;;10479473;28;20386;-74
2024/03/24 20:34:54;;;;;;;1.70;0.90;;;;;;;;;;10480384;28;20124;-73
2024/03/24 20:39:58;;;;;;;1.95;1.00;;;;;;;;;;10479332;28;20044;-73
2024/03/24 20:45:05;;;;;;;1.23;0.63;;;;;;;;;;10468557;28;20047;-73
2024/03/24 20:50:07;;;;;;;2.40;0.95;;;;;;;;;;10489160;28;20429;-75
2024/03/24 20:55:12;;;;;;;2.00;1.00;;;;;;;;;;10486048;28;20598;-76
2024/03/24 21:00:14;;;;;;;3.80;0.90;;;;;;;;;;10483523;28;20264;-76
2024/03/24 21:05:18;;;;;;;2.85;1.00;;;;;;;;;;10483098;28;20071;-75
2024/03/24 21:10:24;;;;;;;1.17;1.00;;;;;;;;;;10480730;28;20048;-74
2024/03/24 21:15:26;;;;;;;;;;;;;;;;;;10480886;28;20048;-75
2024/03/24 21:20:30;;;;;;;2.17;0.93;;;;;;;;;;10484887;28;19959;-74
2024/03/24 21:25:37;;;;;;;0.93;0.65;;;;;;;;;;10475751;28;20135;-75
2024/03/24 21:30:42;;;;;;;1.38;0.98;;;;;;;;;;10486379;28;20054;-75
2024/03/24 21:35:51;;;;;;;3.17;1.30;;;;;;;;;;10479773;28;20452;-74
2024/03/24 21:46:15;;;;;;;1.30;0.80;;;;;;;;;;10476756;28;20091;-74
2024/03/24 21:51:17;;;;;;;2.10;0.82;;;;;;;;;;10484795;28;20043;-74
2024/03/24 21:56:21;;;;;;;;;;;;;;;;;;10481342;28;20919;-73
2024/03/24 22:01:24;;;;;;;1.85;0.77;;;;;;;;;;10467866;28;20278;-75
2024/03/24 22:06:27;;;;;;;2.17;0.68;;;;;;;;;;10483766;28;20772;-75
2024/03/24 22:11:29;;;;;;;1.35;0.77;;;;;;;;;;10474703;28;20097;-75
2024/03/24 22:16:36;;;;;;;2.00;1.15;;;;;;;;;;10471428;28;20473;-75
2024/03/24 22:21:38;;;;;;;3.25;1.20;;;;;;;;;;10485206;28;20051;-75
2024/03/24 22:26:41;;;;;;;3.45;1.20;;;;;;;;;;10478602;28;20039;-75
2024/03/24 22:31:46;;;;;;;1.67;0.85;;;;;;;;;;10481658;28;20508;-75
2024/03/24 22:36:48;;;;;;;1.95;1.30;;;;;;;;;;10464836;28;20036;-75
2024/03/24 22:41:53;;;;;;;2.85;1.20;;;;;;;;;;10476559;28;20056;-75
2024/03/24 22:46:55;;;;;;;;;;;;;;;;;;10482619;28;20051;-74
2024/03/24 22:52:00;;;;;;;3.22;1.10;;;;;;;;;;10489045;28;20397;-73
2024/03/24 22:57:03;;;;;;;12.40;1.27;;;;;;;;;;10485273;28;20051;-74
2024/03/24 23:02:08;;;;;;;0.50;0.50;;;;;;;;;;10478803;28;20048;-75
2024/03/24 23:07:13;;;;;;;2.70;1.52;;;;;;;;;;10483188;28;20036;-75
2024/03/24 23:12:15;;;;;;;2.35;1.10;;;;;;;;;;10479086;28;20498;-74
2024/03/24 23:17:17;;;;;;;3.00;1.33;;;;;;;;;;10473341;28;20044;-74
2024/03/24 23:22:21;;;;;;;3.03;1.25;;;;;;;;;;10473962;28;20049;-74
2024/03/24 23:27:26;;;;;;;1.10;0.77;;;;;;;;;;10496428;28;20044;-73
2024/03/24 23:32:29;;;;;;;1.83;1.08;;;;;;;;;;10477673;28;20054;-74
2024/03/24 23:37:36;;;;;;;0.95;0.90;;;;;;;;;;10471847;28;20493;-74
2024/03/24 23:42:39;;;;;;;0.82;0.80;;;;;;;;;;10474644;28;20086;-75
2024/03/24 23:47:41;;;;;;;2.67;1.40;;;;;;;;;;10494698;28;20074;-75
2024/03/24 23:52:46;;;;;;;1.80;0.95;;;;;;;;;;10476871;28;20044;-75
2024/03/24 23:57:48;;;;;;;2.85;1.23;;;;;;;;;;10477913;28;20412;-75
